KAKH/AKH METAR and TAF weather

Enter ICAO airport designator
Station Type Date Time Source
KAKH METAR 2020/08/14 17:33 UTC NOAA

KAKH 141733Z AUTO 20005KT 10SM SCT022 30/23 A2999 RMK AO2 T03000233


Station Type Date Time Source
KAKH Decoded METAR 2020/08/14 17:33 UTC NOAA

GASTONIA MUNICIPAL AIRPORT, NC, United States (KAKH) 35-12N 81-09W 243M
Aug 14, 2020 - 01:33 PM EDT / 2020.08.14 1733 UTC
Wind: from the SSW (200 degrees) at 6 MPH (5 KT):0
Visibility: 10 mile(s):0
Sky conditions: partly cloudy
Temperature: 86.0 F (30.0 C)
Heat index: 93.7 F (34.3 C):1
Dew Point: 73.9 F (23.3 C)
Relative Humidity: 67%
Pressure (altimeter): 29.99 in. Hg (1015 hPa)
ob: KAKH 141733Z AUTO 20005KT 10SM SCT022 30/23 A2999 RMK AO2 T03000233
cycle: 17

Station Type Date Time Source
KAKH TAF UTC NOAA

Error!

Example: see airport list